createdAt,value
2022-09-15T00:02:10.649Z,100509.25
2022-09-15T00:04:40.413Z,100501.25
2022-09-15T00:07:10.215Z,100502.16
2022-09-15T00:09:40.212Z,100495.06
2022-09-15T00:12:10.438Z,100497.72
2022-09-15T00:14:42.802Z,100488.84
2022-09-15T00:17:12.536Z,100496.81
2022-09-15T00:19:42.292Z,100500.38
2022-09-15T00:22:12.105Z,100484.44
2022-09-15T00:24:41.928Z,100483.53
2022-09-15T00:27:11.613Z,100493.28
2022-09-15T00:29:43.944Z,100482.66
2022-09-15T00:32:13.816Z,100482.66
2022-09-15T00:34:43.513Z,100495.94
2022-09-15T00:37:13.240Z,100482.66
2022-09-15T00:39:42.926Z,100493.28
2022-09-15T00:42:16.810Z,100492.41
2022-09-15T00:44:58.333Z,100490.63
2022-09-15T00:47:31.365Z,100487.09
2022-09-15T00:50:04.791Z,100491.50
2022-09-15T00:52:40.343Z,100495.06
2022-09-15T00:55:14.546Z,100493.28
2022-09-15T00:57:47.653Z,100501.25
2022-09-15T01:00:23.273Z,100497.69
2022-09-15T01:02:53.714Z,100497.69
2022-09-15T01:05:26.271Z,100493.28
2022-09-15T01:08:00.770Z,100493.28
2022-09-15T01:10:32.051Z,100495.03
2022-09-15T01:13:04.165Z,100494.16
2022-09-15T01:15:45.934Z,100497.69
2022-09-15T01:18:23.435Z,100497.69
2022-09-15T01:21:24.821Z,100498.59
2022-09-15T01:24:24.238Z,100503.00
2022-09-15T01:27:18.456Z,100507.44
2022-09-15T01:30:20.177Z,100499.47
2022-09-15T01:33:07.853Z,100499.47
2022-09-15T01:35:59.057Z,100505.66
2022-09-15T01:38:40.677Z,100511.88
2022-09-15T01:41:17.571Z,100512.72
2022-09-15T01:43:53.300Z,100521.59
2022-09-15T01:46:28.376Z,100524.22
2022-09-15T01:49:02.379Z,100530.41
2022-09-15T01:51:34.841Z,100521.56
2022-09-15T01:54:07.001Z,100526.88
2022-09-15T01:56:37.077Z,100522.44
2022-09-15T01:59:06.856Z,100532.16
2022-09-15T02:01:47.382Z,100525.03
2022-09-15T02:04:21.788Z,100529.41
2022-09-15T02:06:56.069Z,100542.66
2022-09-15T02:09:31.907Z,100540.84
2022-09-15T02:12:08.767Z,100551.44
2022-09-15T02:14:50.769Z,100539.91
2022-09-15T02:17:24.903Z,100529.28
2022-09-15T02:19:59.171Z,100524.88
2022-09-15T02:22:33.533Z,100528.41
2022-09-15T02:25:07.481Z,100523.94
2022-09-15T02:27:40.700Z,100514.22
2022-09-15T02:30:14.634Z,100509.81
2022-09-15T02:32:51.700Z,100516.91
2022-09-15T02:35:21.911Z,100513.38
2022-09-15T02:37:52.015Z,100506.31
2022-09-15T02:40:22.138Z,100508.97
2022-09-15T02:42:56.789Z,100508.09
2022-09-15T02:45:27.176Z,100509.00
2022-09-15T02:47:59.879Z,100506.34
2022-09-15T02:50:31.114Z,100509.03
2022-09-15T02:53:00.962Z,100502.81
2022-09-15T02:55:31.154Z,100501.06
2022-09-15T02:58:01.739Z,100501.94
2022-09-15T03:00:32.148Z,100505.50
2022-09-15T03:03:04.571Z,100507.28
2022-09-15T03:05:34.261Z,100513.50
2022-09-15T03:08:04.213Z,100509.06
2022-09-15T03:10:34.460Z,100501.09
2022-09-15T03:13:05.131Z,100504.63
2022-09-15T03:15:34.853Z,100509.06
2022-09-15T03:18:07.972Z,100501.97
2022-09-15T03:20:37.673Z,100509.97
2022-09-15T03:23:07.356Z,100516.16
2022-09-15T03:25:37.017Z,100504.66
2022-09-15T03:28:06.681Z,100517.91
2022-09-15T03:30:36.357Z,100510.84
2022-09-15T03:33:09.240Z,100515.25
2022-09-15T03:35:38.946Z,100515.25
2022-09-15T03:38:08.601Z,100516.16
2022-09-15T03:40:38.276Z,100515.25
2022-09-15T03:43:07.975Z,100509.03
2022-09-15T03:45:37.796Z,100520.50
2022-09-15T03:48:10.646Z,100511.66
2022-09-15T03:50:40.339Z,100520.53
2022-09-15T03:53:10.128Z,100517.84
2022-09-15T03:55:39.824Z,100516.97
2022-09-15T03:58:09.475Z,100515.22
2022-09-15T04:00:39.226Z,100513.44
2022-09-15T04:03:11.778Z,100515.25
2022-09-15T04:05:42.291Z,100515.22
2022-09-15T04:08:16.768Z,100519.66
2022-09-15T04:10:46.481Z,100513.47
2022-09-15T04:13:16.221Z,100510.81
2022-09-15T04:15:46.552Z,100509.03
2022-09-15T04:18:18.930Z,100509.94
2022-09-15T04:20:48.630Z,100502.84
2022-09-15T04:23:18.301Z,100509.06
2022-09-15T04:25:56.923Z,100511.72
2022-09-15T04:28:27.279Z,100508.16
2022-09-15T04:30:57.760Z,100509.94
2022-09-15T04:33:30.022Z,100513.47
2022-09-15T04:36:02.105Z,100508.16
2022-09-15T04:38:32.035Z,100502.81
2022-09-15T04:41:02.170Z,100502.81
2022-09-15T04:43:32.309Z,100507.25
2022-09-15T04:46:02.334Z,100500.16
2022-09-15T04:48:35.284Z,100507.25
2022-09-15T04:51:06.017Z,100496.63
2022-09-15T04:53:35.834Z,100500.16
2022-09-15T04:56:07.464Z,100490.41
2022-09-15T04:58:39.915Z,100487.78
2022-09-15T05:01:13.961Z,100490.41
2022-09-15T05:03:46.883Z,100488.63
2022-09-15T05:06:19.045Z,100493.06
2022-09-15T05:08:50.972Z,100488.66
2022-09-15T05:11:21.532Z,100485.06
2022-09-15T05:13:51.623Z,100482.41
2022-09-15T05:16:23.816Z,100486.88
2022-09-15T05:18:57.585Z,100482.47
2022-09-15T05:21:27.525Z,100491.28
2022-09-15T05:23:57.576Z,100494.84
2022-09-15T05:26:29.312Z,100492.19
2022-09-15T05:29:00.049Z,100498.38
2022-09-15T05:31:31.730Z,100495.75
2022-09-15T05:34:05.536Z,100499.28
2022-09-15T05:36:35.730Z,100504.59
2022-09-15T05:39:05.400Z,100505.50
2022-09-15T05:41:35.116Z,100500.19
2022-09-15T05:44:05.583Z,100505.50
2022-09-15T05:46:35.326Z,100493.13
2022-09-15T05:49:08.882Z,100497.56
2022-09-15T05:51:39.312Z,100487.81
2022-09-15T05:54:09.431Z,100494.00
2022-09-15T05:56:39.105Z,100502.88
2022-09-15T05:59:08.989Z,100500.22
2022-09-15T06:01:38.729Z,100501.13
2022-09-15T06:04:12.553Z,100504.69
2022-09-15T06:06:42.262Z,100510.84
2022-09-15T06:09:12.003Z,100510.00
2022-09-15T06:11:41.684Z,100509.13
2022-09-15T06:14:13.479Z,100506.50
2022-09-15T06:16:43.933Z,100508.28
2022-09-15T06:19:16.269Z,100510.06
2022-09-15T06:21:46.166Z,100505.63
2022-09-15T06:24:15.910Z,100518.03
2022-09-15T06:26:45.634Z,100508.31
2022-09-15T06:29:15.865Z,100512.75
2022-09-15T06:31:45.620Z,100523.34
2022-09-15T06:34:18.245Z,100509.19
2022-09-15T06:36:47.928Z,100512.75
2022-09-15T06:39:17.746Z,100518.03
2022-09-15T06:42:01.721Z,100515.41
2022-09-15T06:44:32.265Z,100514.47
2022-09-15T06:47:01.972Z,100512.75
2022-09-15T06:49:34.293Z,100502.09
2022-09-15T06:52:05.305Z,100509.19
2022-09-15T06:54:35.283Z,100508.34
2022-09-15T06:57:04.988Z,100514.53
2022-09-15T06:59:34.688Z,100518.09
2022-09-15T07:02:05.378Z,100523.41
2022-09-15T07:04:40.225Z,100526.03
2022-09-15T07:07:09.923Z,100525.19
2022-09-15T07:09:41.441Z,100523.41
2022-09-15T07:12:11.634Z,100533.13
2022-09-15T07:14:41.354Z,100529.59
2022-09-15T07:17:11.181Z,100540.22
2022-09-15T07:19:43.485Z,100546.41
2022-09-15T07:22:13.954Z,100542.88
2022-09-15T07:24:43.630Z,100546.38
2022-09-15T07:27:13.409Z,100542.84
2022-09-15T07:29:43.191Z,100549.03
2022-09-15T07:32:12.913Z,100548.16
2022-09-15T07:34:45.277Z,100553.50
2022-09-15T07:37:16.342Z,100547.28
2022-09-15T07:39:46.446Z,100549.94
2022-09-15T07:42:16.270Z,100549.09
2022-09-15T07:44:45.953Z,100553.50
2022-09-15T07:47:15.640Z,100553.53
2022-09-15T07:49:47.952Z,100557.97
2022-09-15T07:52:17.652Z,100562.41
2022-09-15T07:54:47.341Z,100564.19
2022-09-15T07:57:17.011Z,100572.19
2022-09-15T07:59:46.757Z,100569.50
2022-09-15T08:02:20.062Z,100569.53
2022-09-15T08:04:53.259Z,100573.97
2022-09-15T08:07:23.061Z,100583.75
2022-09-15T08:09:52.784Z,100592.63
2022-09-15T08:12:22.460Z,100595.28
2022-09-15T08:14:52.219Z,100597.06
2022-09-15T08:17:21.905Z,100591.72
2022-09-15T08:19:54.169Z,100590.81
2022-09-15T08:22:23.949Z,100598.81
2022-09-15T08:24:53.620Z,100601.50
2022-09-15T08:27:23.319Z,100598.81
2022-09-15T08:29:53.022Z,100605.03
2022-09-15T08:32:22.841Z,100605.91
2022-09-15T08:34:55.183Z,100604.09
2022-09-15T08:37:25.024Z,100613.84
2022-09-15T08:39:54.919Z,100606.78
2022-09-15T08:42:29.217Z,100620.94
2022-09-15T08:45:02.457Z,100620.06
2022-09-15T08:47:36.995Z,100635.16
2022-09-15T08:50:17.495Z,100626.28
2022-09-15T08:52:52.147Z,100628.06
2022-09-15T08:55:36.686Z,100618.31
2022-09-15T08:58:06.940Z,100628.94
2022-09-15T09:00:37.000Z,100622.72
2022-09-15T09:03:37.834Z,100625.38
2022-09-15T09:06:19.599Z,100631.56
2022-09-15T09:09:11.526Z,100631.56
2022-09-15T09:11:55.063Z,100633.31
2022-09-15T09:14:34.233Z,100635.06
2022-09-15T09:17:21.432Z,100629.75
2022-09-15T09:20:13.802Z,100622.66
2022-09-15T09:22:49.121Z,100632.44
2022-09-15T09:25:27.695Z,100628.00
2022-09-15T09:27:59.782Z,100627.97
2022-09-15T09:30:34.155Z,100632.41
2022-09-15T09:33:18.052Z,100628.81
2022-09-15T09:35:49.282Z,100635.03
2022-09-15T09:38:28.059Z,100635.91
2022-09-15T09:41:02.122Z,100636.78
2022-09-15T09:43:33.348Z,100634.97
2022-09-15T09:46:03.152Z,100635.00
2022-09-15T09:48:33.853Z,100635.03
2022-09-15T09:51:03.686Z,100635.06
2022-09-15T09:53:37.028Z,100634.19
2022-09-15T09:56:25.465Z,100640.41
2022-09-15T09:58:55.469Z,100661.63
2022-09-15T10:01:28.511Z,100679.38
2022-09-15T10:04:19.879Z,100672.22
2022-09-15T10:06:50.169Z,100676.59
2022-09-15T10:09:22.782Z,100676.56
2022-09-15T10:11:54.763Z,100676.47
2022-09-15T10:14:30.673Z,100673.78
2022-09-15T10:17:03.726Z,100679.03
2022-09-15T10:19:36.626Z,100675.44
2022-09-15T10:22:07.737Z,100670.06
2022-09-15T10:24:42.961Z,100672.69
2022-09-15T10:27:22.030Z,100657.63
2022-09-15T10:29:51.755Z,100654.97
2022-09-15T10:32:28.162Z,100662.03
2022-09-15T10:35:06.840Z,100667.28
2022-09-15T10:37:52.668Z,100661.13
2022-09-15T10:40:49.230Z,100662.00
2022-09-15T10:43:34.909Z,100660.25
2022-09-15T10:46:08.322Z,100656.75
2022-09-15T10:49:01.150Z,100661.19
2022-09-15T10:51:46.562Z,100655.91
2022-09-15T10:54:34.481Z,100651.53
2022-09-15T10:57:19.805Z,100648.94
2022-09-15T11:00:00.700Z,100650.78
2022-09-15T11:02:49.937Z,100645.47
2022-09-15T11:05:58.775Z,100651.69
2022-09-15T11:08:54.296Z,100648.19
2022-09-15T11:11:33.493Z,100653.50
2022-09-15T11:14:21.131Z,100661.53
2022-09-15T11:17:06.695Z,100664.19
2022-09-15T11:19:59.072Z,100669.53
2022-09-15T11:22:35.426Z,100659.78
2022-09-15T11:25:09.110Z,100662.47
2022-09-15T11:27:45.234Z,100673.97
2022-09-15T11:30:22.563Z,100674.81
2022-09-15T11:32:58.450Z,100682.78
2022-09-15T11:35:45.378Z,100676.59
2022-09-15T11:38:29.699Z,100675.72
2022-09-15T11:41:07.800Z,100673.94
2022-09-15T11:43:46.235Z,100664.25
2022-09-15T11:46:26.116Z,100667.81
2022-09-15T11:49:02.734Z,100666.97
2022-09-15T11:51:42.322Z,100669.66
2022-09-15T11:54:18.757Z,100678.50
2022-09-15T11:56:50.169Z,100674.09
2022-09-15T11:59:28.777Z,100678.53
2022-09-15T12:02:12.960Z,100676.75
2022-09-15T12:04:49.743Z,100682.13
2022-09-15T12:07:28.973Z,100675.03
2022-09-15T12:09:59.514Z,100680.41
2022-09-15T12:12:30.725Z,100681.25
2022-09-15T12:15:01.803Z,100681.28
2022-09-15T12:17:40.962Z,100688.38
2022-09-15T12:20:20.072Z,100688.38
2022-09-15T12:22:56.705Z,100681.28
2022-09-15T12:25:31.421Z,100685.75
2022-09-15T12:31:17.129Z,100688.41
2022-09-15T12:33:57.455Z,100684.84
2022-09-15T12:36:47.069Z,100688.41
2022-09-15T12:39:27.138Z,100682.19
2022-09-15T12:41:59.597Z,100686.66
2022-09-15T12:44:37.402Z,100683.97
2022-09-15T12:47:18.665Z,100675.97
2022-09-15T12:49:53.769Z,100679.53
2022-09-15T12:52:26.975Z,100684.88
2022-09-15T12:55:00.900Z,100675.97
2022-09-15T12:57:34.370Z,100681.31
2022-09-15T13:00:20.212Z,100673.31
2022-09-15T13:02:51.061Z,100676.84
2022-09-15T13:06:14.244Z,100695.50
2022-09-15T13:09:18.957Z,100698.16
2022-09-15T13:11:54.305Z,100709.69
2022-09-15T13:14:30.708Z,100698.13
2022-09-15T13:17:05.503Z,100695.47
2022-09-15T13:19:44.276Z,100695.41
2022-09-15T13:22:24.122Z,100711.34
2022-09-15T13:25:01.413Z,100709.56
2022-09-15T13:27:40.638Z,100705.13
2022-09-15T13:30:26.986Z,100704.22
2022-09-15T13:33:03.777Z,100705.94
2022-09-15T13:35:50.702Z,100717.44
2022-09-15T13:38:42.737Z,100718.28
2022-09-15T13:41:34.864Z,100709.38
2022-09-15T13:44:28.227Z,100696.94
2022-09-15T13:47:10.756Z,100696.94
2022-09-15T13:49:51.209Z,100697.78
2022-09-15T13:52:32.786Z,100688.94
2022-09-15T13:55:21.720Z,100690.72
2022-09-15T14:00:59.299Z,100695.09
2022-09-15T14:03:37.356Z,100695.16
2022-09-15T14:06:14.938Z,100695.16
2022-09-15T14:08:46.818Z,100693.41
2022-09-15T14:11:18.547Z,100691.59
2022-09-15T14:13:50.600Z,100691.63
2022-09-15T14:16:34.051Z,100683.63
2022-09-15T14:19:06.116Z,100689.78
2022-09-15T14:21:37.018Z,100688.00
2022-09-15T14:24:09.086Z,100685.34
2022-09-15T14:26:39.383Z,100695.09
2022-09-15T14:29:10.197Z,100691.53
2022-09-15T14:31:43.917Z,100693.31
2022-09-15T14:34:20.220Z,100699.56
2022-09-15T14:37:02.338Z,100712.81
2022-09-15T14:39:33.677Z,100709.25
2022-09-15T14:42:12.334Z,100709.22
2022-09-15T14:47:35.380Z,100706.56
2022-09-15T14:50:10.397Z,100707.47
2022-09-15T14:52:43.502Z,100700.44
2022-09-15T14:55:19.037Z,100702.22
2022-09-15T14:57:58.406Z,100710.22
2022-09-15T15:00:34.139Z,100712.03
2022-09-15T15:03:21.033Z,100701.38
2022-09-15T15:06:02.454Z,100706.69
2022-09-15T15:08:41.052Z,100707.59
2022-09-15T15:11:12.024Z,100703.19
2022-09-15T15:13:45.739Z,100701.41
2022-09-15T15:16:23.544Z,100701.41
2022-09-15T15:18:57.311Z,100707.63
2022-09-15T15:21:42.117Z,100699.69
2022-09-15T15:24:22.819Z,100695.25
2022-09-15T15:26:54.407Z,100689.06
2022-09-15T15:29:43.507Z,100692.59
2022-09-15T15:32:18.171Z,100697.00
2022-09-15T15:34:55.876Z,100696.97
2022-09-15T15:37:29.772Z,100700.50
2022-09-15T15:40:01.996Z,100695.22
2022-09-15T15:42:32.315Z,100698.75
2022-09-15T15:45:07.081Z,100696.09
2022-09-15T15:47:39.606Z,100697.88
2022-09-15T15:50:17.616Z,100697.88
2022-09-15T15:52:47.441Z,100702.28
2022-09-15T15:55:18.882Z,100699.63
2022-09-15T15:57:51.373Z,100703.16
2022-09-15T16:00:24.959Z,100704.91
2022-09-15T16:02:55.793Z,100703.16
2022-09-15T16:05:30.414Z,100705.78
2022-09-15T16:08:04.937Z,100706.59
2022-09-15T16:10:43.468Z,100703.09
2022-09-15T16:13:16.424Z,100711.03
2022-09-15T16:15:46.666Z,100710.13
2022-09-15T16:18:17.220Z,100713.69
2022-09-15T16:20:49.636Z,100711.06
2022-09-15T16:23:21.595Z,100719.00
2022-09-15T16:25:55.329Z,100733.19
2022-09-15T16:28:25.008Z,100739.38
2022-09-15T16:30:54.706Z,100734.81
2022-09-15T16:33:25.107Z,100730.28
2022-09-15T16:36:06.576Z,100735.44
2022-09-15T16:38:37.317Z,100737.97
2022-09-15T16:41:09.229Z,100738.78
2022-09-15T16:43:38.908Z,100741.38
2022-09-15T16:46:09.250Z,100743.13
2022-09-15T16:48:38.997Z,100733.34
2022-09-15T16:51:25.239Z,100728.88
2022-09-15T16:53:57.053Z,100727.03
2022-09-15T16:56:27.173Z,100735.03
2022-09-15T16:59:00.260Z,100725.31
2022-09-15T17:01:30.817Z,100736.81
2022-09-15T17:04:00.674Z,100729.72
2022-09-15T17:06:33.041Z,100738.50
2022-09-15T17:09:02.758Z,100734.00
2022-09-15T17:11:32.591Z,100733.09
2022-09-15T17:14:02.336Z,100733.09
2022-09-15T17:16:32.309Z,100737.50
2022-09-15T17:19:02.125Z,100748.97
2022-09-15T17:21:34.442Z,100744.47
2022-09-15T17:24:04.304Z,100730.22
2022-09-15T17:26:34.106Z,100723.13
2022-09-15T17:29:03.840Z,100724.03
2022-09-15T17:31:33.567Z,100712.56
2022-09-15T17:34:03.573Z,100709.91
2022-09-15T17:36:37.406Z,100715.19
2022-09-15T17:39:07.145Z,100716.09
2022-09-15T17:41:38.709Z,100710.81
2022-09-15T17:44:11.191Z,100709.97
2022-09-15T17:46:41.007Z,100716.22
2022-09-15T17:49:10.765Z,100721.53
2022-09-15T17:51:43.122Z,100723.31
2022-09-15T17:54:13.614Z,100707.38
2022-09-15T17:56:43.345Z,100711.81
2022-09-15T17:59:15.679Z,100711.81
2022-09-15T18:01:46.167Z,100713.59
2022-09-15T18:04:15.967Z,100718.00
2022-09-15T18:06:48.488Z,100723.31
2022-09-15T18:09:18.161Z,100743.59
2022-09-15T18:11:47.921Z,100763.84
2022-09-15T18:14:17.844Z,100744.25
2022-09-15T18:16:50.541Z,100755.59
2022-09-15T18:19:20.220Z,100744.06
2022-09-15T18:21:56.719Z,100741.38
2022-09-15T18:24:26.448Z,100738.66
2022-09-15T18:26:56.268Z,100737.75
2022-09-15T18:29:26.873Z,100732.41
2022-09-15T18:31:58.157Z,100732.34
2022-09-15T18:34:28.088Z,100729.69
2022-09-15T18:37:01.530Z,100721.75
2022-09-15T18:39:31.362Z,100734.16
2022-09-15T18:42:01.222Z,100727.13
2022-09-15T18:44:30.946Z,100727.13
2022-09-15T18:47:00.616Z,100733.28
2022-09-15T18:49:30.285Z,100739.41
2022-09-15T18:52:02.700Z,100738.50
2022-09-15T18:54:34.881Z,100734.91
2022-09-15T18:57:04.588Z,100745.44
2022-09-15T18:59:34.231Z,100739.25
2022-09-15T19:02:04.033Z,100748.03
2022-09-15T19:04:38.522Z,100748.03
2022-09-15T19:07:13.902Z,100743.59
2022-09-15T19:09:44.723Z,100749.75
2022-09-15T19:12:14.479Z,100749.69
2022-09-15T19:14:46.572Z,100750.50
2022-09-15T19:17:17.017Z,100752.28
2022-09-15T19:19:46.766Z,100750.41
2022-09-15T19:22:19.116Z,100750.31
2022-09-15T19:24:48.832Z,100758.19
2022-09-15T19:27:18.537Z,100754.63
2022-09-15T19:29:48.269Z,100749.25
2022-09-15T19:32:19.825Z,100756.28
2022-09-15T19:34:50.016Z,100746.53
2022-09-15T19:37:24.241Z,100749.22
2022-09-15T19:39:54.953Z,100743.88
2022-09-15T19:42:24.929Z,100743.84
2022-09-15T19:44:54.811Z,100745.59
2022-09-15T19:47:24.680Z,100744.69
2022-09-15T19:49:55.216Z,100743.75
2022-09-15T19:52:27.789Z,100741.03
2022-09-15T19:54:57.502Z,100762.16
2022-09-15T19:57:27.540Z,100757.72
2022-09-15T19:59:57.259Z,100753.25
2022-09-15T20:02:27.056Z,100749.78
2022-09-15T20:07:44.951Z,100746.25
2022-09-15T20:10:14.753Z,100745.38
2022-09-15T20:12:44.416Z,100752.47
2022-09-15T20:15:14.360Z,100758.72
2022-09-15T20:17:44.044Z,100742.00
2022-09-15T20:20:14.345Z,100743.75
2022-09-15T20:22:46.633Z,100743.72
2022-09-15T20:25:16.363Z,100744.53
2022-09-15T20:27:47.748Z,100751.56
2022-09-15T20:30:17.474Z,100750.69
2022-09-15T20:32:47.167Z,100759.53
2022-09-15T20:35:17.674Z,100748.06
2022-09-15T20:37:49.990Z,100748.09
2022-09-15T20:40:19.795Z,100748.06
2022-09-15T20:42:50.308Z,100742.72
2022-09-15T20:45:19.969Z,100746.25
2022-09-15T20:47:49.666Z,100744.41
2022-09-15T20:50:19.356Z,100747.06
2022-09-15T20:52:51.677Z,100750.63
2022-09-15T20:55:21.405Z,100749.69
2022-09-15T20:57:51.079Z,100760.25
2022-09-15T21:00:21.991Z,100756.72
2022-09-15T21:02:54.262Z,100760.25
2022-09-15T21:05:23.936Z,100761.97
2022-09-15T21:07:56.232Z,100757.50
2022-09-15T21:10:26.338Z,100753.06
2022-09-15T21:12:56.033Z,100753.94
2022-09-15T21:15:26.193Z,100753.94
2022-09-15T21:17:55.929Z,100765.41
2022-09-15T21:20:25.637Z,100778.63
2022-09-15T21:23:00.005Z,100786.53
2022-09-15T21:25:29.741Z,100779.28
2022-09-15T21:27:59.800Z,100777.34
2022-09-15T21:30:29.535Z,100779.91
2022-09-15T21:32:59.212Z,100776.31
2022-09-15T21:35:28.911Z,100775.44
2022-09-15T21:38:01.905Z,100779.91
2022-09-15T21:40:31.653Z,100785.28
2022-09-15T21:43:01.519Z,100780.97
2022-09-15T21:45:31.233Z,100780.13
2022-09-15T21:48:00.924Z,100786.38
2022-09-15T21:50:30.640Z,100789.13
2022-09-15T21:53:03.010Z,100773.25
2022-09-15T21:55:32.745Z,100783.81
2022-09-15T21:58:02.453Z,100793.53
2022-09-15T22:00:32.170Z,100790.88
2022-09-15T22:03:01.898Z,100778.53
2022-09-15T22:05:32.284Z,100770.56
2022-09-15T22:08:05.227Z,100770.56
2022-09-15T22:10:34.933Z,100770.56
2022-09-15T22:13:04.624Z,100768.78
2022-09-15T22:15:34.524Z,100760.00
2022-09-15T22:18:04.290Z,100760.91
2022-09-15T22:20:33.977Z,100759.22
2022-09-15T22:23:06.337Z,100756.59
2022-09-15T22:25:36.238Z,100757.50
2022-09-15T22:28:06.077Z,100756.66
2022-09-15T22:30:35.815Z,100752.25
2022-09-15T22:33:05.521Z,100749.66
2022-09-15T22:35:35.342Z,100757.63
2022-09-15T22:38:07.621Z,100769.97
2022-09-15T22:40:37.415Z,100785.91
2022-09-15T22:43:07.148Z,100784.09
2022-09-15T22:45:36.918Z,100783.16
2022-09-15T22:48:06.889Z,100773.38
2022-09-15T22:50:36.742Z,100772.41
2022-09-15T22:53:09.249Z,100773.28
2022-09-15T22:55:38.925Z,100780.41
2022-09-15T22:58:08.732Z,100781.31
2022-09-15T23:00:40.922Z,100781.28
2022-09-15T23:03:11.555Z,100766.19
2022-09-15T23:05:41.434Z,100759.09
2022-09-15T23:08:14.730Z,100753.81
2022-09-15T23:10:44.425Z,100755.56
2022-09-15T23:13:14.874Z,100756.47
2022-09-15T23:15:45.911Z,100758.25
2022-09-15T23:18:15.619Z,100760.91
2022-09-15T23:20:45.526Z,100760.88
2022-09-15T23:23:17.847Z,100755.47
2022-09-15T23:25:47.536Z,100743.09
2022-09-15T23:28:17.233Z,100744.84
2022-09-15T23:30:46.927Z,100743.13
2022-09-15T23:33:16.592Z,100741.38
2022-09-15T23:35:46.282Z,100748.47
2022-09-15T23:38:20.121Z,100750.19
2022-09-15T23:40:51.101Z,100749.34
2022-09-15T23:43:21.306Z,100747.59
2022-09-15T23:45:51.356Z,100743.19
2022-09-15T23:48:21.120Z,100740.53
2022-09-15T23:50:51.628Z,100742.25
2022-09-15T23:53:24.246Z,100750.19
2022-09-15T23:55:53.956Z,100747.53
2022-09-15T23:58:23.642Z,100753.69
